Penola, South Australia

4:30 AM ACST on October 02, 2014 (GMT +0930)
Mount Gambier | Change Station
CLOSE
Current Station
Airport
Location: Mount Gambier Airport,
Elevation: 210 ft
Nearby Weather Stations

Elev 210 ft 37.75 °S, 140.79 °E | Updated 1 hour ago

Mostly Cloudy
Mostly Cloudy
50 °F
Feels Like 50 °F
N
10
Wind Variable Wind from West

Today
High -- | Low -- °F
--% Chance of Precip.
Yesterday
High -- | Low -- °F
Precip. -- in
5:41 AM 6:11 PM
Waxing Crescent, 50% visible
Pressure 30.24 in
Visibility 6.2 miles
Clouds Scattered Clouds 2500 ft
Mostly Cloudy 3200 ft
Dew Point 48 °F
Humidity 94%
Rainfall 0.00 in
Snow Depth Not available.
UV 0 out of 12
Pollen Not available.
Air Quality Not available.
Flu Activity Not available.
METAR YMTG 011800Z AUTO 26009KT 9999 // SCT025 BKN032 10/09 Q1024

More Conditions Fewer Conditions

Pressure 30.24 in
Visibility 6.2 miles
Clouds Scattered Clouds 2500 ft
Mostly Cloudy 3200 ft
Dew Point 48 °F
Humidity 94%
Rainfall 0.00 in
Snow Depth Not available.
UV 0 out of 12
Pollen Not available.
Air Quality Not available.
Flu Activity Not available.
METAR YMTG 011800Z AUTO 26009KT 9999 // SCT025 BKN032 10/09 Q1024

More Conditions Fewer Conditions

10-Day Weather Forecast

Almanac

Astronomy

Oct. 02, 2014 Rise Set
Actual Time 5:41 AM ACST 6:11 PM ACST
Civil Twilight 5:15 AM ACST 6:37 PM ACST
Nautical Twilight 4:44 AM ACST 7:08 PM ACST
Astronomical Twilight 4:13 AM ACST 7:40 PM ACST
Moon 11:19 AM ACST (10/2) 12:49 AM ACST (10/2)
Length of Visible Light 13h 22m
Length of Day
12h 29m
Tomorrow will be 2m 24s longer.
Waxing Crescent, 50% of the Moon is Illuminated
Oct 1
Waxing Crescent
Oct 1
First Quarter
Oct 8
Full
Oct 15
Last Quarter
Oct 23
New

Yesterday's Extremes

Country Highs Country Lows

Community

WunderPhotos

Upload Photos

1,758,010 photos uploaded!

WunderBlogs® & News

By Dr. Jeff Masters
Director of Meteorology, Weather Underground
By Kari Strenfel
Meteorologist, Weather Underground
By Christopher C. Burt
Weather Historian, Weather Underground
October 1, 2014
October 1, 2014
October 1, 2014

Nearby

Snow Depth

Not available.

Earthquake Activity

City Distance Mag. Time & Date
No recent earthquake activity has been reported nearby.
Minimum magnitude displayed is 2.5.

Coastal Water Temperatures

Place Temperature
No Stations Reporting

Nearby Weather Stations